createdAt,value
2018-06-03T00:00:33.763Z,91.70
2018-06-03T00:03:03.765Z,91.80
2018-06-03T00:05:33.727Z,91.90
2018-06-03T00:08:03.878Z,91.80
2018-06-03T00:10:33.860Z,91.80
2018-06-03T00:13:03.906Z,92.10
2018-06-03T00:15:33.896Z,92.30
2018-06-03T00:18:03.885Z,92.20
2018-06-03T00:21:43.812Z,92.20
2018-06-03T00:24:13.916Z,92.20
2018-06-03T00:26:43.925Z,92.30
2018-06-03T00:29:13.960Z,92.40
2018-06-03T00:31:43.968Z,92.30
2018-06-03T00:34:13.979Z,92.40
2018-06-03T00:36:49.306Z,92.50
2018-06-03T00:39:19.299Z,92.60
2018-06-03T00:41:49.298Z,92.60
2018-06-03T00:44:19.280Z,92.70
2018-06-03T00:46:49.246Z,92.70
2018-06-03T00:49:19.248Z,92.70
2018-06-03T00:51:49.216Z,92.70
2018-06-03T00:54:19.251Z,92.70
2018-06-03T00:57:05.890Z,92.70
2018-06-03T00:59:35.861Z,92.80
2018-06-03T01:02:05.843Z,92.80
2018-06-03T01:04:35.873Z,92.90
2018-06-03T01:07:05.860Z,92.80
2018-06-03T01:09:35.841Z,92.80
2018-06-03T01:12:05.826Z,92.60
2018-06-03T01:14:35.831Z,92.60
2018-06-03T01:17:05.813Z,92.70
2018-06-03T01:19:35.791Z,92.70
2018-06-03T01:22:06.397Z,92.80
2018-06-03T01:24:36.386Z,92.80
2018-06-03T01:27:06.387Z,92.80
2018-06-03T01:29:36.388Z,92.90
2018-06-03T01:32:06.401Z,93.00
2018-06-03T01:34:36.393Z,92.90
2018-06-03T01:37:06.520Z,93.00
2018-06-03T01:39:36.518Z,93.10
2018-06-03T01:42:06.535Z,93.10
2018-06-03T01:44:36.514Z,93.10
2018-06-03T01:47:06.521Z,93.30
2018-06-03T01:49:36.537Z,93.30
2018-06-03T01:52:06.540Z,93.40
2018-06-03T01:54:36.601Z,93.30
2018-06-03T01:57:06.884Z,93.30
2018-06-03T01:59:37.237Z,93.30
2018-06-03T02:02:07.258Z,93.20
2018-06-03T02:04:37.239Z,93.20
2018-06-03T02:07:07.238Z,93.00
2018-06-03T02:09:37.251Z,92.90
2018-06-03T02:12:07.287Z,92.80
2018-06-03T02:14:37.330Z,92.80
2018-06-03T02:17:07.623Z,92.70
2018-06-03T02:19:37.659Z,93.00
2018-06-03T02:22:07.696Z,93.10
2018-06-03T02:24:37.706Z,93.40
2018-06-03T02:27:07.733Z,93.30
2018-06-03T02:32:07.409Z,93.70
2018-06-03T02:34:37.391Z,93.80
2018-06-03T02:37:07.424Z,93.90
2018-06-03T02:39:37.380Z,93.80
2018-06-03T02:42:07.414Z,93.80
2018-06-03T02:44:37.390Z,93.80
2018-06-03T02:47:07.440Z,93.90
2018-06-03T02:49:37.396Z,94.00
2018-06-03T02:52:07.564Z,94.00
2018-06-03T02:54:37.552Z,94.10
2018-06-03T02:57:07.581Z,94.10
2018-06-03T02:59:37.551Z,94.30
2018-06-03T03:02:07.611Z,94.40
2018-06-03T03:04:37.571Z,94.50
2018-06-03T03:07:07.558Z,94.50
2018-06-03T03:09:37.548Z,94.50
2018-06-03T03:12:07.623Z,94.50
2018-06-03T03:14:37.615Z,94.40
2018-06-03T03:17:07.642Z,94.30
2018-06-03T03:19:37.632Z,94.20
2018-06-03T03:22:07.719Z,94.20
2018-06-03T03:24:37.703Z,94.20
2018-06-03T03:27:07.755Z,94.20
2018-06-03T03:29:37.749Z,94.20
2018-06-03T03:32:07.803Z,94.20
2018-06-03T03:34:37.800Z,94.30
2018-06-03T03:37:07.851Z,94.20
2018-06-03T03:39:38.132Z,94.20
2018-06-03T03:42:08.177Z,94.30
2018-06-03T03:44:38.175Z,94.30
2018-06-03T03:47:08.219Z,94.20
2018-06-03T03:49:38.240Z,94.30
2018-06-03T03:52:08.311Z,94.40
2018-06-03T03:54:38.316Z,94.40
2018-06-03T03:57:08.345Z,94.60
2018-06-03T03:59:38.384Z,94.60
2018-06-03T04:02:08.363Z,94.60
2018-06-03T04:04:38.376Z,94.60
2018-06-03T04:07:08.381Z,94.80
2018-06-03T04:09:38.371Z,94.80
2018-06-03T04:12:08.400Z,95.00
2018-06-03T04:14:38.432Z,95.20
2018-06-03T04:17:08.488Z,95.20
2018-06-03T04:19:38.539Z,95.20
2018-06-03T04:22:08.507Z,95.40
2018-06-03T04:24:38.499Z,95.40
2018-06-03T04:27:08.444Z,95.50
2018-06-03T04:29:38.479Z,95.70
2018-06-03T04:32:08.465Z,95.90
2018-06-03T04:34:38.471Z,96.40
2018-06-03T04:37:08.433Z,96.80
2018-06-03T04:39:38.461Z,97.10
2018-06-03T04:42:08.424Z,97.30
2018-06-03T04:44:38.422Z,97.40
2018-06-03T04:47:08.700Z,97.40
2018-06-03T04:49:39.093Z,97.30
2018-06-03T04:52:09.163Z,97.20
2018-06-03T04:54:39.206Z,97.10
2018-06-03T04:57:09.292Z,97.00
2018-06-03T04:59:39.418Z,97.00
2018-06-03T05:02:09.437Z,96.80
2018-06-03T05:04:39.462Z,96.80
2018-06-03T05:07:09.504Z,96.70
2018-06-03T05:09:39.536Z,96.60
2018-06-03T05:12:09.510Z,96.50
2018-06-03T05:14:39.494Z,96.20
2018-06-03T05:17:09.459Z,95.90
2018-06-03T05:19:39.465Z,95.60
2018-06-03T05:22:09.432Z,95.50
2018-06-03T05:24:39.458Z,95.40
2018-06-03T05:27:09.419Z,95.30
2018-06-03T05:29:39.495Z,95.20
2018-06-03T05:32:09.914Z,94.90
2018-06-03T05:34:39.914Z,94.80
2018-06-03T05:37:09.880Z,94.40
2018-06-03T05:39:39.856Z,94.40
2018-06-03T05:42:09.868Z,94.80
2018-06-03T05:44:39.870Z,95.00
2018-06-03T05:47:09.831Z,94.90
2018-06-03T05:49:39.814Z,94.90
2018-06-03T05:52:09.766Z,94.50
2018-06-03T05:54:39.809Z,93.30
2018-06-03T05:57:09.816Z,93.10
2018-06-03T05:59:39.813Z,91.30
2018-06-03T06:02:09.789Z,90.50
2018-06-03T06:04:39.797Z,90.60
2018-06-03T06:07:09.787Z,90.70
2018-06-03T06:09:39.765Z,90.50
2018-06-03T06:12:09.742Z,87.30
2018-06-03T06:14:39.721Z,83.40
2018-06-03T06:17:09.723Z,79.00
2018-06-03T06:19:39.760Z,81.10
2018-06-03T06:24:39.348Z,80.30
2018-06-03T06:27:09.339Z,81.60
2018-06-03T06:29:39.302Z,81.80
2018-06-03T06:32:09.303Z,78.40
2018-06-03T06:34:39.312Z,80.20
2018-06-03T06:37:09.314Z,79.50
2018-06-03T06:39:39.303Z,80.60
2018-06-03T06:42:09.304Z,77.70
2018-06-03T06:44:39.289Z,76.00
2018-06-03T06:47:09.296Z,77.10
2018-06-03T06:49:39.272Z,76.50
2018-06-03T06:52:09.755Z,73.90
2018-06-03T06:54:39.793Z,74.10
2018-06-03T06:57:09.796Z,76.00
2018-06-03T06:59:39.789Z,74.60
2018-06-03T07:02:09.826Z,73.30
2018-06-03T07:04:39.808Z,73.60
2018-06-03T07:07:09.806Z,74.30
2018-06-03T07:09:39.737Z,71.40
2018-06-03T07:12:09.713Z,74.00
2018-06-03T07:14:39.657Z,72.10
2018-06-03T07:17:09.644Z,75.20
2018-06-03T07:19:39.598Z,76.70
2018-06-03T07:22:09.578Z,75.90
2018-06-03T07:24:39.532Z,73.80
2018-06-03T07:27:09.560Z,73.30
2018-06-03T07:29:39.517Z,74.50
2018-06-03T07:32:10.118Z,75.70
2018-06-03T07:34:40.107Z,80.00
2018-06-03T07:37:10.097Z,77.20
2018-06-03T07:39:40.047Z,74.70
2018-06-03T07:42:10.086Z,72.70
2018-06-03T07:44:40.061Z,76.30
2018-06-03T07:47:10.027Z,78.70
2018-06-03T07:49:40.043Z,76.60
2018-06-03T07:52:10.059Z,73.00
2018-06-03T07:54:40.082Z,74.00
2018-06-03T07:57:10.068Z,73.90
2018-06-03T07:59:40.024Z,70.30
2018-06-03T08:02:10.003Z,66.00
2018-06-03T08:04:39.972Z,67.80
2018-06-03T08:07:09.978Z,68.60
2018-06-03T08:09:39.924Z,68.00
2018-06-03T08:12:09.932Z,68.40
2018-06-03T08:14:39.903Z,66.70
2018-06-03T08:17:09.912Z,66.00
2018-06-03T08:19:39.921Z,65.20
2018-06-03T08:22:09.924Z,65.50
2018-06-03T08:24:39.858Z,64.50
2018-06-03T08:27:09.891Z,62.00
2018-06-03T08:29:39.891Z,67.00
2018-06-03T08:32:09.910Z,63.20
2018-06-03T08:34:39.870Z,64.80
2018-06-03T08:37:09.872Z,66.40
2018-06-03T08:39:39.856Z,65.00
2018-06-03T08:42:09.888Z,70.20
2018-06-03T08:44:39.863Z,67.30
2018-06-03T08:47:09.873Z,63.30
2018-06-03T08:49:39.887Z,65.00
2018-06-03T08:52:10.081Z,67.60
2018-06-03T08:54:40.097Z,65.40
2018-06-03T08:57:10.078Z,61.60
2018-06-03T08:59:40.124Z,69.00
2018-06-03T09:02:10.126Z,67.10
2018-06-03T09:04:40.165Z,70.70
2018-06-03T09:07:10.139Z,68.50
2018-06-03T09:09:40.141Z,62.70
2018-06-03T09:12:10.138Z,69.50
2018-06-03T09:14:40.159Z,64.60
2018-06-03T09:17:10.119Z,65.40
2018-06-03T09:19:40.113Z,68.40
2018-06-03T09:22:10.035Z,64.50
2018-06-03T09:24:40.012Z,60.50
2018-06-03T09:27:10.000Z,64.00
2018-06-03T09:29:40.007Z,62.60
2018-06-03T09:32:09.967Z,67.20
2018-06-03T09:34:40.014Z,62.20
2018-06-03T09:37:10.012Z,66.80
2018-06-03T09:39:40.011Z,59.40
2018-06-03T09:42:10.031Z,59.30
2018-06-03T09:44:40.035Z,63.90
2018-06-03T09:47:10.271Z,63.20
2018-06-03T09:49:40.284Z,59.40
2018-06-03T09:52:10.343Z,61.40
2018-06-03T09:54:40.353Z,59.90
2018-06-03T09:57:10.308Z,59.20
2018-06-03T09:59:40.382Z,62.80
2018-06-03T10:02:10.368Z,58.70
2018-06-03T10:04:40.379Z,60.90
2018-06-03T10:07:10.353Z,61.80
2018-06-03T10:09:40.455Z,60.40
2018-06-03T10:12:10.456Z,59.00
2018-06-03T10:14:40.466Z,60.30
2018-06-03T10:17:10.418Z,58.30
2018-06-03T10:19:40.467Z,59.30
2018-06-03T10:22:10.528Z,64.60
2018-06-03T10:27:10.190Z,64.00
2018-06-03T10:29:40.327Z,58.90
2018-06-03T10:32:10.371Z,64.30
2018-06-03T10:34:40.401Z,62.20
2018-06-03T10:37:10.497Z,59.80
2018-06-03T10:39:40.589Z,63.60
2018-06-03T10:42:10.563Z,66.80
2018-06-03T10:44:40.564Z,56.80
2018-06-03T10:47:10.578Z,61.30
2018-06-03T10:49:40.656Z,59.60
2018-06-03T10:52:10.611Z,57.50
2018-06-03T10:54:40.656Z,55.80
2018-06-03T10:57:11.574Z,57.60
2018-06-03T10:59:41.616Z,57.40
2018-06-03T11:02:11.630Z,56.20
2018-06-03T11:04:41.610Z,54.40
2018-06-03T11:07:12.350Z,59.50
2018-06-03T11:09:42.348Z,60.60
2018-06-03T11:12:12.321Z,56.60
2018-06-03T11:14:42.727Z,54.50
2018-06-03T11:17:12.770Z,54.10
2018-06-03T11:19:43.363Z,57.60
2018-06-03T11:22:13.304Z,58.20
2018-06-03T11:24:43.313Z,56.70
2018-06-03T11:27:13.297Z,58.40
2018-06-03T11:29:43.390Z,56.00
2018-06-03T11:32:13.348Z,54.90
2018-06-03T11:34:43.354Z,54.90
2018-06-03T11:37:13.382Z,58.30
2018-06-03T11:39:43.520Z,55.80
2018-06-03T11:42:13.759Z,55.90
2018-06-03T11:44:44.238Z,56.30
2018-06-03T11:47:14.414Z,54.00
2018-06-03T11:49:44.487Z,53.60
2018-06-03T11:52:14.507Z,55.50
2018-06-03T11:54:44.668Z,57.70
2018-06-03T11:57:14.860Z,55.10
2018-06-03T11:59:45.541Z,54.30
2018-06-03T12:02:17.380Z,54.00
2018-06-03T12:04:47.496Z,59.50
2018-06-03T12:07:17.547Z,57.30
2018-06-03T12:12:17.150Z,58.90
2018-06-03T12:14:47.880Z,54.80
2018-06-03T12:17:17.908Z,56.00
2018-06-03T12:19:47.897Z,53.60
2018-06-03T12:22:17.940Z,56.80
2018-06-03T12:24:47.906Z,57.30
2018-06-03T12:27:17.973Z,56.50
2018-06-03T12:29:47.942Z,56.90
2018-06-03T12:32:18.055Z,62.00
2018-06-03T12:34:48.008Z,56.70
2018-06-03T12:37:18.030Z,58.20
2018-06-03T12:39:48.025Z,59.20
2018-06-03T12:42:18.104Z,57.20
2018-06-03T12:44:48.070Z,57.30
2018-06-03T12:47:18.127Z,58.60
2018-06-03T12:49:48.120Z,58.60
2018-06-03T12:52:18.191Z,56.50
2018-06-03T12:54:48.197Z,56.60
2018-06-03T12:57:18.205Z,56.90
2018-06-03T12:59:48.178Z,58.90
2018-06-03T13:02:18.384Z,57.10
2018-06-03T13:04:48.345Z,57.10
2018-06-03T13:07:18.444Z,57.00
2018-06-03T13:09:48.400Z,55.80
2018-06-03T13:12:18.444Z,56.80
2018-06-03T13:14:48.452Z,56.30
2018-06-03T13:17:18.535Z,56.70
2018-06-03T13:19:48.517Z,57.80
2018-06-03T13:22:18.568Z,52.00
2018-06-03T13:24:48.555Z,50.10
2018-06-03T13:27:18.621Z,51.40
2018-06-03T13:29:48.630Z,47.10
2018-06-03T13:32:18.779Z,49.70
2018-06-03T13:34:48.759Z,50.00
2018-06-03T13:37:18.790Z,48.70
2018-06-03T13:39:48.750Z,54.60
2018-06-03T13:42:18.860Z,54.10
2018-06-03T13:44:48.851Z,57.40
2018-06-03T13:47:18.960Z,53.50
2018-06-03T13:49:48.927Z,54.10
2018-06-03T13:52:19.008Z,53.90
2018-06-03T13:54:49.079Z,54.60
2018-06-03T13:57:19.162Z,52.40
2018-06-03T13:59:49.156Z,51.60
2018-06-03T14:02:19.265Z,51.70
2018-06-03T14:04:49.243Z,51.60
2018-06-03T14:07:19.283Z,51.60
2018-06-03T14:09:49.357Z,49.80
2018-06-03T14:12:19.449Z,53.10
2018-06-03T14:14:49.457Z,54.50
2018-06-03T14:17:19.587Z,53.30
2018-06-03T14:19:49.603Z,53.60
2018-06-03T14:22:19.691Z,54.30
2018-06-03T14:24:49.738Z,56.70
2018-06-03T14:27:19.772Z,55.20
2018-06-03T14:29:49.808Z,55.80
2018-06-03T14:32:19.895Z,51.60
2018-06-03T14:34:49.936Z,49.10
2018-06-03T14:37:19.973Z,49.10
2018-06-03T14:39:50.000Z,50.90
2018-06-03T14:42:20.055Z,48.90
2018-06-03T14:44:50.053Z,48.80
2018-06-03T14:47:20.117Z,48.10
2018-06-03T14:49:50.119Z,48.30
2018-06-03T14:52:20.147Z,50.70
2018-06-03T14:54:50.236Z,53.10
2018-06-03T14:57:20.309Z,51.20
2018-06-03T14:59:50.250Z,51.40
2018-06-03T15:02:20.364Z,56.20
2018-06-03T15:04:50.402Z,52.30
2018-06-03T15:07:20.423Z,52.60
2018-06-03T15:09:50.413Z,52.80
2018-06-03T15:12:20.542Z,51.30
2018-06-03T15:14:50.534Z,50.40
2018-06-03T15:17:20.575Z,51.90
2018-06-03T15:19:50.538Z,51.70
2018-06-03T15:22:20.555Z,48.60
2018-06-03T15:24:50.599Z,49.30
2018-06-03T15:27:20.678Z,50.30
2018-06-03T15:29:50.694Z,49.80
2018-06-03T15:32:20.802Z,48.90
2018-06-03T15:34:50.787Z,50.70
2018-06-03T15:37:20.915Z,51.00
2018-06-03T15:39:50.903Z,51.20
2018-06-03T15:42:20.879Z,52.80
2018-06-03T15:44:50.854Z,48.60
2018-06-03T15:47:20.866Z,49.90
2018-06-03T15:49:50.864Z,51.00
2018-06-03T15:52:20.820Z,51.10
2018-06-03T15:54:50.868Z,49.40
2018-06-03T15:57:20.898Z,49.50
2018-06-03T15:59:50.915Z,49.10
2018-06-03T16:02:20.933Z,48.80
2018-06-03T16:04:50.902Z,48.30
2018-06-03T16:07:20.911Z,47.80
2018-06-03T16:09:50.936Z,47.00
2018-06-03T16:12:21.191Z,48.20
2018-06-03T16:14:51.256Z,48.80
2018-06-03T16:17:21.367Z,48.70
2018-06-03T16:19:51.340Z,48.00
2018-06-03T16:22:21.434Z,49.70
2018-06-03T16:24:51.418Z,47.30
2018-06-03T16:27:21.467Z,47.30
2018-06-03T16:29:51.526Z,47.20
2018-06-03T16:32:21.850Z,48.00
2018-06-03T16:34:51.869Z,48.10
2018-06-03T16:37:22.040Z,49.10
2018-06-03T16:39:52.032Z,49.50
2018-06-03T16:42:22.197Z,49.50
2018-06-03T16:44:52.273Z,49.30
2018-06-03T16:47:22.512Z,49.20
2018-06-03T16:49:52.702Z,48.20
2018-06-03T16:52:22.781Z,49.50
2018-06-03T16:54:52.826Z,49.90
2018-06-03T16:57:22.937Z,50.60
2018-06-03T16:59:52.943Z,50.90
2018-06-03T17:02:23.102Z,50.50
2018-06-03T17:04:53.081Z,50.20
2018-06-03T17:07:23.223Z,50.20
2018-06-03T17:09:53.234Z,50.30
2018-06-03T17:12:23.692Z,50.50
2018-06-03T17:14:53.673Z,51.30
2018-06-03T17:17:23.873Z,52.20
2018-06-03T17:19:53.830Z,53.40
2018-06-03T17:22:23.974Z,53.20
2018-06-03T17:24:53.952Z,53.40
2018-06-03T17:27:24.858Z,54.50
2018-06-03T17:29:54.803Z,55.60
2018-06-03T17:32:25.129Z,55.50
2018-06-03T17:34:55.111Z,55.40
2018-06-03T17:37:25.245Z,56.50
2018-06-03T17:39:55.218Z,56.10
2018-06-03T17:44:54.894Z,56.30
2018-06-03T17:47:25.076Z,56.10
2018-06-03T17:52:25.078Z,56.60
2018-06-03T17:54:55.076Z,57.40
2018-06-03T17:57:25.192Z,56.40
2018-06-03T17:59:55.143Z,56.30
2018-06-03T18:02:25.270Z,55.40
2018-06-03T18:04:55.240Z,54.80
2018-06-03T18:07:25.356Z,55.90
2018-06-03T18:09:56.283Z,55.50
2018-06-03T18:12:26.556Z,55.60
2018-06-03T18:14:56.548Z,56.00
2018-06-03T18:17:26.886Z,56.40
2018-06-03T18:19:56.926Z,56.20
2018-06-03T18:22:27.011Z,56.00
2018-06-03T18:24:57.022Z,56.60
2018-06-03T18:27:27.144Z,56.50
2018-06-03T18:32:26.765Z,57.30
2018-06-03T18:34:56.715Z,57.10
2018-06-03T18:37:26.838Z,57.00
2018-06-03T18:39:56.795Z,57.40
2018-06-03T18:42:26.863Z,57.70
2018-06-03T18:44:56.830Z,57.70
2018-06-03T18:47:26.947Z,57.90
2018-06-03T18:49:56.909Z,57.90
2018-06-03T18:52:26.932Z,58.10
2018-06-03T18:54:56.941Z,58.10
2018-06-03T18:57:27.269Z,58.10
2018-06-03T18:59:57.250Z,58.80
2018-06-03T19:02:27.282Z,57.70
2018-06-03T19:04:57.254Z,58.60
2018-06-03T19:07:27.352Z,58.80
2018-06-03T19:09:57.327Z,58.40
2018-06-03T19:12:27.376Z,59.30
2018-06-03T19:14:57.340Z,59.30
2018-06-03T19:17:27.496Z,59.20
2018-06-03T19:19:57.467Z,59.30
2018-06-03T19:22:27.515Z,60.10
2018-06-03T19:24:57.536Z,59.80
2018-06-03T19:27:27.576Z,59.90
2018-06-03T19:29:57.591Z,60.00
2018-06-03T19:32:27.626Z,60.40
2018-06-03T19:34:57.650Z,60.40
2018-06-03T19:37:27.607Z,60.10
2018-06-03T19:39:57.562Z,61.00
2018-06-03T19:42:27.621Z,60.90
2018-06-03T19:44:57.599Z,61.40
2018-06-03T19:47:27.703Z,61.40
2018-06-03T19:49:57.697Z,61.20
2018-06-03T19:52:27.821Z,60.80
2018-06-03T19:54:57.829Z,61.20
2018-06-03T19:57:27.890Z,61.50
2018-06-03T19:59:58.102Z,61.60
2018-06-03T20:02:28.263Z,61.50
2018-06-03T20:04:58.203Z,61.80
2018-06-03T20:07:28.270Z,62.40
2018-06-03T20:09:58.223Z,62.20
2018-06-03T20:12:28.242Z,62.60
2018-06-03T20:14:58.318Z,63.20
2018-06-03T20:17:28.589Z,64.00
2018-06-03T20:19:58.546Z,64.40
2018-06-03T20:22:28.614Z,64.90
2018-06-03T20:24:58.692Z,65.50
2018-06-03T20:27:28.907Z,65.60
2018-06-03T20:29:58.929Z,66.60
2018-06-03T20:32:29.094Z,66.50
2018-06-03T20:37:28.829Z,68.00
2018-06-03T20:39:58.812Z,68.40
2018-06-03T20:42:28.928Z,69.00
2018-06-03T20:44:58.881Z,69.00
2018-06-03T20:47:28.955Z,68.90
2018-06-03T20:50:01.162Z,69.50
2018-06-03T20:52:31.610Z,69.60
2018-06-03T20:55:01.575Z,70.00
2018-06-03T20:57:31.708Z,70.20
2018-06-03T21:00:01.721Z,70.60
2018-06-03T21:02:32.005Z,70.30
2018-06-03T21:05:01.962Z,71.40
2018-06-03T21:07:32.047Z,71.50
2018-06-03T21:10:02.038Z,71.10
2018-06-03T21:12:32.086Z,72.40
2018-06-03T21:15:02.061Z,72.60
2018-06-03T21:17:32.899Z,73.40
2018-06-03T21:20:02.887Z,74.10
2018-06-03T21:22:32.935Z,74.20
2018-06-03T21:25:02.914Z,74.70
2018-06-03T21:27:33.975Z,74.60
2018-06-03T21:30:04.056Z,75.20
2018-06-03T21:32:34.207Z,75.70
2018-06-03T21:35:04.304Z,75.80
2018-06-03T21:37:34.435Z,75.90
2018-06-03T21:40:04.487Z,76.00
2018-06-03T21:42:34.967Z,76.60
2018-06-03T21:45:05.200Z,76.80
2018-06-03T21:47:35.478Z,76.80
2018-06-03T21:50:05.558Z,77.10
2018-06-03T21:52:35.704Z,78.00
2018-06-03T21:55:05.762Z,78.00
2018-06-03T21:57:35.839Z,78.50
2018-06-03T22:00:07.738Z,78.80
2018-06-03T22:02:37.745Z,79.40
2018-06-03T22:05:07.717Z,79.50
2018-06-03T22:07:37.814Z,79.50
2018-06-03T22:10:07.817Z,79.50
2018-06-03T22:12:37.790Z,79.20
2018-06-03T22:15:07.751Z,79.50
2018-06-03T22:17:37.779Z,80.20
2018-06-03T22:20:07.824Z,80.00
2018-06-03T22:22:38.459Z,80.30
2018-06-03T22:25:08.509Z,80.70
2018-06-03T22:27:38.507Z,81.40
2018-06-03T22:30:08.587Z,81.30
2018-06-03T22:32:38.509Z,81.40
2018-06-03T22:35:08.580Z,82.00
2018-06-03T22:37:39.566Z,82.30
2018-06-03T22:40:09.637Z,82.30
2018-06-03T22:42:39.652Z,82.60
2018-06-03T22:45:09.669Z,82.90
2018-06-03T22:47:39.664Z,82.30
2018-06-03T22:50:09.751Z,82.70
2018-06-03T22:52:39.724Z,83.20
2018-06-03T22:55:09.730Z,83.40
2018-06-03T22:57:51.387Z,83.60
2018-06-03T23:00:33.036Z,83.50
2018-06-03T23:03:08.098Z,83.90
2018-06-03T23:05:38.157Z,83.90
2018-06-03T23:08:08.238Z,84.10
2018-06-03T23:10:38.957Z,84.00
2018-06-03T23:13:08.977Z,84.10
2018-06-03T23:15:38.965Z,84.40
2018-06-03T23:18:08.959Z,84.90
2018-06-03T23:20:38.972Z,84.80
2018-06-03T23:23:08.960Z,84.60
2018-06-03T23:25:38.904Z,85.40
2018-06-03T23:28:08.890Z,84.80
2018-06-03T23:30:38.847Z,85.00
2018-06-03T23:33:08.840Z,85.50
2018-06-03T23:35:38.835Z,85.80
2018-06-03T23:38:09.024Z,85.90
2018-06-03T23:40:39.023Z,86.00
2018-06-03T23:43:09.017Z,86.20
2018-06-03T23:45:39.036Z,86.20
2018-06-03T23:48:09.095Z,86.20
2018-06-03T23:50:39.093Z,86.90
2018-06-03T23:53:09.160Z,86.40
2018-06-03T23:55:39.115Z,86.20
2018-06-03T23:58:09.128Z,85.90
